Time;durP1;ratioP1;P1;durP2;ratioP2;P2;SDS_P1;SDS_P2;PMS_P1;PMS_P2;Temp;Humidity;BMP_temperature;BMP_pressure;BME280_temperature;BME280_humidity;BME280_pressure;Samples;Min_cycle;Max_cycle;Signal;HPM_P1;HPM_P2
2022/11/22 00:00:33;;;;;;;25.27;12.07;;;1.40;99.90;;;;;;6191902;23;20090;-94
2022/11/22 00:02:59;;;;;;;21.80;12.10;;;2.10;99.90;;;;;;6217181;23;20066;-94
2022/11/22 00:05:25;;;;;;;24.90;13.32;;;2.00;99.90;;;;;;6148164;23;20092;-95
2022/11/22 00:08:11;;;;;;;23.80;13.85;;;2.10;99.90;;;;;;6163764;23;20016;-96
2022/11/22 00:10:37;;;;;;;24.15;13.05;;;2.10;99.90;;;;;;6188904;23;20017;-95
2022/11/22 00:13:41;;;;;;;23.75;12.82;;;2.00;99.90;;;;;;6188369;23;20024;-95
2022/11/22 00:16:27;;;;;;;24.98;13.40;;;2.00;99.90;;;;;;6163517;23;20020;-96
2022/11/22 00:18:55;;;;;;;27.35;13.75;;;2.00;99.90;;;;;;6187659;23;20031;-95
2022/11/22 00:25:48;;;;;;;28.38;13.13;;;1.90;99.90;;;;;;6213944;23;20017;-94
2022/11/22 00:28:14;;;;;;;27.77;13.43;;;1.90;99.90;;;;;;6164023;23;20028;-95
2022/11/22 00:30:59;;;;;;;24.45;12.25;;;2.00;99.90;;;;;;6188596;23;20016;-94
2022/11/22 00:33:25;;;;;;;28.73;13.90;;;1.90;99.90;;;;;;6163425;23;20023;-93
2022/11/22 00:39:14;;;;;;;23.65;12.85;;;1.20;99.90;;;;;;6188884;23;20024;-96
2022/11/22 01:28:31;;;;;;;38.70;16.60;;;1.90;99.90;;;;;;6250804;22;20089;-94
2022/11/22 01:34:44;;;;;;;39.60;17.15;;;2.00;99.90;;;;;;6249237;22;20031;-94
2022/11/22 01:37:30;;;;;;;44.58;18.90;;;1.30;99.90;;;;;;6200545;22;20077;-94
2022/11/22 01:40:00;;;;;;;42.55;17.98;;;2.00;99.90;;;;;;6225157;22;20016;-94
2022/11/22 01:42:52;;;;;;;42.25;17.40;;;2.00;99.90;;;;;;6225089;22;20015;-93
2022/11/22 01:45:43;;;;;;;44.47;19.42;;;1.50;99.90;;;;;;6200630;22;20023;-94
2022/11/22 01:48:20;;;;;;;37.50;17.35;;;2.00;99.90;;;;;;6225498;22;20101;-94
2022/11/22 02:04:41;;;;;;;39.55;17.20;;;2.10;99.90;;;;;;6277260;22;20011;-94
2022/11/22 02:07:45;;;;;;;40.72;18.20;;;2.50;99.90;;;;;;6224986;22;20015;-95
2022/11/22 02:18:02;;;;;;;41.15;18.30;;;2.00;99.90;;;;;;6250485;22;20074;-94
2022/11/22 02:20:42;;;;;;;35.92;17.83;;;2.10;99.90;;;;;;6224044;22;20351;-95
2022/11/22 02:24:00;;;;;;;41.85;17.75;;;2.10;99.90;;;;;;6199991;22;20089;-95
2022/11/22 02:26:31;;;;;;;37.50;18.48;;;2.20;99.90;;;;;;6103054;23;20415;-95
2022/11/22 02:29:05;;;;;;;36.25;17.60;;;2.70;99.90;;;;;;6214076;22;20016;-95
2022/11/22 02:31:46;;;;;;;39.90;18.05;;;2.20;99.90;;;;;;6223608;22;20027;-95
2022/11/22 02:34:41;;;;;;;32.38;17.05;;;2.20;99.90;;;;;;6223000;22;20381;-94
2022/11/22 02:37:12;;;;;;;35.53;17.60;;;1.60;99.90;;;;;;6222824;22;20020;-96
2022/11/22 02:39:42;;;;;;;31.83;17.02;;;2.20;99.90;;;;;;6224041;22;20065;-95
2022/11/22 02:42:11;;;;;;;33.45;17.00;;;2.00;99.90;;;;;;6224855;22;20514;-94
2022/11/22 02:45:21;;;;;;;29.92;15.57;;;2.20;99.90;;;;;;6223740;22;20011;-93
2022/11/22 02:48:09;;;;;;;32.38;15.93;;;2.20;99.90;;;;;;6224732;22;20038;-93
2022/11/22 02:50:57;;;;;;;34.28;17.50;;;2.30;99.90;;;;;;6224254;22;20073;-95
2022/11/22 02:54:09;;;;;;;28.07;15.17;;;2.40;99.90;;;;;;6224527;22;20153;-96
2022/11/22 02:56:37;;;;;;;30.73;15.35;;;1.90;99.90;;;;;;6224566;22;20055;-95
2022/11/22 02:59:26;;;;;;;33.83;17.05;;;2.20;99.90;;;;;;6224507;22;20023;-95
2022/11/22 03:01:58;;;;;;;33.10;15.88;;;2.20;99.90;;;;;;6224417;22;20130;-96
2022/11/22 03:04:41;;;;;;;32.28;15.10;;;2.20;99.90;;;;;;6199592;22;20023;-94
2022/11/22 03:07:10;;;;;;;31.15;15.70;;;3.60;99.90;;;;;;6210944;22;20028;-95
2022/11/22 03:10:15;;;;;;;30.85;14.70;;;2.40;99.90;;;;;;6169608;23;20023;-96
2022/11/22 03:16:35;;;;;;;32.20;15.60;;;2.30;99.90;;;;;;6219969;23;20046;-96
2022/11/22 03:22:26;;;;;;;33.58;17.60;;;2.50;99.90;;;;;;6219117;23;19969;-96
2022/11/22 03:28:54;;;;;;;28.20;14.63;;;2.40;99.90;;;;;;6220201;23;20016;-94
2022/11/22 03:31:32;;;;;;;33.22;16.65;;;2.40;99.90;;;;;;6196129;23;20016;-96
2022/11/22 03:34:08;;;;;;;34.60;17.10;;;2.40;99.90;;;;;;6195142;23;20020;-96
2022/11/22 03:36:59;;;;;;;29.20;14.48;;;2.40;99.90;;;;;;6171975;23;20016;-96
2022/11/22 03:43:11;;;;;;;31.58;15.05;;;2.50;99.90;;;;;;6249225;23;20015;-96
2022/11/22 03:45:42;;;;;;;31.83;15.65;;;2.10;99.90;;;;;;6172530;23;20027;-96
2022/11/22 03:48:08;;;;;;;32.83;15.20;;;2.50;99.90;;;;;;6196163;23;20016;-96
2022/11/22 03:50:38;;;;;;;32.08;14.93;;;2.50;99.90;;;;;;6170044;23;20020;-96
2022/11/22 03:53:07;;;;;;;32.55;14.90;;;2.60;99.90;;;;;;6194041;23;20027;-96
2022/11/22 03:55:38;;;;;;;25.00;13.63;;;2.70;99.90;;;;;;6194683;23;20021;-95
2022/11/22 03:58:27;;;;;;;29.92;14.35;;;2.60;99.90;;;;;;6219480;23;20020;-95
2022/11/22 04:01:27;;;;;;;29.55;14.63;;;2.60;99.90;;;;;;6219693;23;20055;-94
2022/11/22 04:04:15;;;;;;;30.70;14.70;;;3.90;99.90;;;;;;6220665;23;20020;-96
2022/11/22 04:06:48;;;;;;;32.50;14.80;;;2.60;99.90;;;;;;6219354;22;20027;-96
2022/11/22 04:09:14;;;;;;;28.10;13.93;;;3.90;99.90;;;;;;6196066;23;20051;-96
2022/11/22 04:11:49;;;;;;;31.95;14.43;;;2.70;99.90;;;;;;6193716;23;20016;-96
2022/11/22 04:27:29;;;;;;;24.48;13.23;;;2.70;99.90;;;;;;6248086;23;20492;-95
2022/11/22 04:34:08;;;;;;;35.78;14.45;;;2.90;99.90;;;;;;6221961;23;20020;-96
2022/11/22 04:36:58;;;;;;;28.70;14.05;;;2.90;99.90;;;;;;6194309;23;20027;-96
2022/11/22 04:39:27;;;;;;;29.25;13.95;;;2.80;99.90;;;;;;6196124;23;20058;-95
2022/11/22 04:46:30;;;;;;;36.10;15.30;;;2.90;99.90;;;;;;6221666;23;20102;-95
2022/11/22 04:49:50;;;;;;;27.67;14.23;;;2.90;99.90;;;;;;6195395;23;20434;-95
2022/11/22 04:59:21;;;;;;;30.08;13.52;;;2.40;99.90;;;;;;6246267;23;20019;-96
2022/11/22 05:02:20;;;;;;;27.58;13.93;;;3.20;99.90;;;;;;6194563;23;20047;-95
2022/11/22 05:05:29;;;;;;;32.65;15.13;;;3.10;99.90;;;;;;6171623;23;20070;-96
2022/11/22 05:08:02;;;;;;;25.90;12.88;;;3.50;99.90;;;;;;6192679;23;20022;-96
2022/11/22 05:13:37;;;;;;;31.60;13.50;;;3.40;99.90;;;;;;6220641;23;20020;-96
2022/11/22 05:16:26;;;;;;;27.92;13.35;;;3.20;99.90;;;;;;6192957;23;20943;-95
2022/11/22 05:18:59;;;;;;;31.40;15.27;;;3.80;99.90;;;;;;6194022;23;20074;-96
2022/11/22 05:21:34;;;;;;;28.58;13.32;;;3.20;99.90;;;;;;6171967;23;20013;-96
2022/11/22 05:24:43;;;;;;;25.00;13.35;;;3.20;99.90;;;;;;6195929;23;20458;-96
2022/11/22 05:34:22;;;;;;;29.85;13.43;;;3.20;99.90;;;;;;6247531;23;20058;-96
2022/11/22 05:40:39;;;;;;;;;;;;;;;;;;;;;
2022/11/22 05:43:33;;;;;;;29.65;13.90;;;3.30;99.90;;;;;;6220254;23;20020;-96
2022/11/22 05:46:16;;;;;;;23.92;12.80;;;3.30;99.90;;;;;;6195576;23;20470;-95
2022/11/22 05:48:46;;;;;;;26.65;12.70;;;4.60;99.90;;;;;;6170587;23;20383;-95
2022/11/22 05:51:17;;;;;;;30.40;14.18;;;3.30;99.90;;;;;;6170375;23;20453;-94
2022/11/22 06:01:12;;;;;;;29.60;13.82;;;3.40;99.90;;;;;;6180798;23;20020;-96
2022/11/22 06:03:57;;;;;;;29.30;14.70;;;3.30;99.90;;;;;;6195108;23;20020;-94
2022/11/22 06:06:49;;;;;;;24.48;12.57;;;3.40;99.90;;;;;;6195327;22;20051;-94
2022/11/22 06:09:22;;;;;;;24.08;13.02;;;3.50;99.90;;;;;;6163740;23;20016;-96
2022/11/22 06:12:09;;;;;;;28.98;13.63;;;3.40;99.90;;;;;;6142193;23;20020;-96
2022/11/22 06:15:01;;;;;;;27.33;13.85;;;3.50;99.90;;;;;;6164743;23;20021;-96
2022/11/22 06:21:28;;;;;;;26.30;13.02;;;3.50;99.90;;;;;;6137000;23;20028;-96
2022/11/22 06:24:14;;;;;;;28.92;14.02;;;3.40;99.90;;;;;;6165418;23;20020;-95
2022/11/22 06:30:35;;;;;;;29.02;13.02;;;4.50;99.90;;;;;;6189334;23;20017;-95
2022/11/22 06:33:02;;;;;;;27.88;13.20;;;3.50;99.90;;;;;;6140138;23;20443;-96
2022/11/22 06:39:28;;;;;;;24.92;12.82;;;3.80;99.90;;;;;;6189844;23;20570;-95
2022/11/22 06:42:16;;;;;;;25.42;13.45;;;3.80;99.90;;;;;;6165753;23;20013;-96
2022/11/22 06:45:00;;;;;;;30.53;13.63;;;3.60;99.90;;;;;;6140696;23;20427;-95
2022/11/22 06:51:33;;;;;;;28.50;13.68;;;3.70;99.90;;;;;;6188837;23;20032;-95
2022/11/22 06:54:27;;;;;;;;;;;;;;;;;;;;;
2022/11/22 06:56:58;;;;;;;31.40;14.10;;;2.90;99.90;;;;;;6187592;23;20017;-96
2022/11/22 07:00:07;;;;;;;31.40;14.02;;;3.00;99.90;;;;;;6166165;23;20056;-95
2022/11/22 07:02:56;;;;;;;27.55;13.45;;;3.60;99.90;;;;;;6164410;23;20016;-94
2022/11/22 15:51:21;;;;;;;2.63;1.35;;;6.50;99.90;;;;;;6243065;23;20565;-95
2022/11/22 15:54:27;;;;;;;5.47;1.58;;;6.50;99.90;;;;;;6217870;23;20028;-96
2022/11/22 15:57:09;;;;;;;6.00;1.55;;;6.50;99.90;;;;;;6191338;23;20024;-94
2022/11/22 15:59:57;;;;;;;5.95;1.40;;;6.50;99.90;;;;;;6193496;23;20458;-96
2022/11/22 16:02:32;;;;;;;3.80;1.35;;;6.60;99.90;;;;;;6193785;23;20016;-96
2022/11/22 16:05:09;;;;;;;5.25;1.25;;;6.60;99.90;;;;;;6167563;23;20458;-93
2022/11/22 16:11:28;;;;;;;4.72;1.55;;;6.50;99.90;;;;;;6244419;23;20010;-94
2022/11/22 16:17:59;;;;;;;6.30;1.40;;;6.10;99.90;;;;;;6217003;23;20020;-94
2022/11/22 16:21:03;;;;;;;4.68;1.33;;;6.30;99.90;;;;;;6192234;23;20028;-95
2022/11/22 16:24:06;;;;;;;3.85;1.35;;;6.60;99.90;;;;;;6192961;23;20019;-95
2022/11/22 16:26:37;;;;;;;3.53;1.20;;;6.60;99.90;;;;;;6214669;23;20016;-95
2022/11/22 16:29:30;;;;;;;5.47;1.33;;;6.30;99.90;;;;;;6191729;23;20086;-94
2022/11/22 16:32:22;;;;;;;4.93;1.20;;;6.60;99.90;;;;;;6193324;23;20093;-94
2022/11/22 16:34:52;;;;;;;3.10;1.40;;;6.60;99.90;;;;;;6192659;23;20113;-95
2022/11/22 16:37:57;;;;;;;6.45;1.45;;;6.60;99.90;;;;;;6166808;23;20621;-95
2022/11/22 16:40:23;;;;;;;3.90;1.52;;;5.90;99.90;;;;;;6191909;23;20684;-94
2022/11/22 16:42:51;;;;;;;4.00;1.50;;;6.60;99.90;;;;;;6167187;23;20020;-95
2022/11/22 22:30:24;;;;;;;12.00;8.02;;;6.50;99.90;;;;;;6212719;22;20039;-94
2022/11/22 22:32:52;;;;;;;11.50;8.40;;;6.50;99.90;;;;;;6161303;23;20048;-94
2022/11/22 22:35:19;;;;;;;12.20;9.10;;;6.50;99.90;;;;;;6212634;23;20107;-94
2022/11/22 22:38:04;;;;;;;14.23;8.60;;;6.50;99.90;;;;;;6188637;23;20019;-95
2022/11/22 22:40:30;;;;;;;12.75;8.75;;;6.50;99.90;;;;;;6162897;23;20199;-94
2022/11/22 22:42:58;;;;;;;14.30;9.85;;;6.50;99.90;;;;;;6162565;23;20107;-94
2022/11/22 22:45:24;;;;;;;12.48;8.68;;;6.60;99.90;;;;;;6162330;23;20016;-94
2022/11/22 22:47:50;;;;;;;12.80;9.27;;;6.60;99.90;;;;;;6185195;23;20021;-91
2022/11/22 22:50:16;;;;;;;14.02;9.00;;;6.60;99.90;;;;;;6209457;23;20323;-94
2022/11/22 22:52:42;;;;;;;14.30;9.07;;;6.70;99.90;;;;;;6186725;23;20023;-94
2022/11/22 22:55:27;;;;;;;12.07;8.82;;;6.60;99.90;;;;;;6164782;23;20024;-95
2022/11/22 22:57:58;;;;;;;13.15;9.32;;;6.60;99.90;;;;;;6189952;23;20027;-94
2022/11/22 23:01:01;;;;;;;11.85;8.82;;;6.60;99.90;;;;;;6189688;23;20552;-94
2022/11/22 23:03:31;;;;;;;15.77;9.50;;;6.70;99.90;;;;;;6189446;23;20160;-95
2022/11/22 23:21:44;;;;;;;16.90;10.85;;;6.70;99.90;;;;;;6251470;22;20024;-96
2022/11/22 23:24:32;;;;;;;15.52;10.48;;;6.90;99.90;;;;;;6220094;23;20103;-93
2022/11/22 23:27:03;;;;;;;15.38;10.90;;;6.70;99.90;;;;;;6168395;23;20346;-93
2022/11/22 23:29:29;;;;;;;18.50;11.48;;;6.70;99.90;;;;;;6149074;23;20396;-95
2022/11/22 23:35:27;;;;;;;18.55;11.05;;;6.70;99.90;;;;;;6221133;23;20042;-95
2022/11/22 23:38:22;;;;;;;19.13;13.40;;;6.70;99.90;;;;;;6172904;23;20023;-95
2022/11/22 23:41:19;;;;;;;17.73;11.38;;;6.70;99.90;;;;;;6223925;23;20031;-96
2022/11/22 23:47:34;;;;;;;20.55;12.85;;;6.60;99.90;;;;;;6221115;23;20024;-95
2022/11/22 23:50:17;;;;;;;20.10;12.65;;;6.70;99.90;;;;;;6174235;23;20016;-95
2022/11/22 23:56:34;;;;;;;;;;;;;;;;;;;;;
